createdAt,value
2019-05-22T00:00:50.213Z,100.0
2019-05-22T00:02:50.159Z,100.0
2019-05-22T00:04:50.486Z,100.0
2019-05-22T00:06:50.493Z,100.0
2019-05-22T00:08:50.445Z,100.0
2019-05-22T00:10:50.443Z,100.0
2019-05-22T00:12:50.542Z,100.0
2019-05-22T00:14:50.631Z,100.0
2019-05-22T00:16:49.795Z,100.0
2019-05-22T00:18:50.776Z,100.0
2019-05-22T00:20:50.795Z,100.0
2019-05-22T00:22:50.762Z,100.0
2019-05-22T00:24:50.752Z,100.0
2019-05-22T00:26:49.893Z,100.0
2019-05-22T00:28:49.990Z,100.0
2019-05-22T00:30:49.910Z,100.0
2019-05-22T00:32:49.822Z,100.0
2019-05-22T00:34:50.134Z,100.0
2019-05-22T00:36:50.229Z,100.0
2019-05-22T00:38:50.170Z,100.0
2019-05-22T00:40:50.203Z,100.0
2019-05-22T00:43:14.630Z,100.0
2019-05-22T00:44:50.423Z,100.0
2019-05-22T00:46:50.588Z,100.0
2019-05-22T00:48:50.498Z,100.0
2019-05-22T00:50:50.513Z,100.0
2019-05-22T00:52:50.470Z,100.0
2019-05-22T00:54:49.869Z,100.0
2019-05-22T00:56:50.136Z,100.0
2019-05-22T00:58:50.090Z,100.0
2019-05-22T01:00:50.040Z,100.0
2019-05-22T01:02:50.029Z,100.0
2019-05-22T01:04:50.429Z,100.0
2019-05-22T01:06:50.578Z,100.0
2019-05-22T01:08:50.654Z,100.0
2019-05-22T01:10:50.584Z,100.0
2019-05-22T01:12:50.610Z,100.0
2019-05-22T01:14:50.775Z,100.0
2019-05-22T01:16:50.110Z,100.0
2019-05-22T01:18:50.125Z,100.0
2019-05-22T01:20:50.210Z,100.0
2019-05-22T01:22:50.321Z,100.0
2019-05-22T01:24:50.486Z,100.0
2019-05-22T01:26:49.797Z,100.0
2019-05-22T01:28:50.768Z,100.0
2019-05-22T01:30:49.891Z,100.0
2019-05-22T01:32:50.125Z,100.0
2019-05-22T01:34:49.946Z,100.0
2019-05-22T01:36:50.049Z,100.0
2019-05-22T01:38:50.537Z,100.0
2019-05-22T01:40:50.619Z,100.0
2019-05-22T01:42:50.497Z,100.0
2019-05-22T01:45:07.320Z,100.0
2019-05-22T01:46:50.128Z,100.0
2019-05-22T01:48:50.178Z,100.0
2019-05-22T01:50:50.152Z,100.0
2019-05-22T01:52:50.183Z,100.0
2019-05-22T01:54:50.241Z,100.0
2019-05-22T01:56:50.493Z,100.0
2019-05-22T01:58:50.482Z,100.0
2019-05-22T02:00:50.510Z,100.0
2019-05-22T02:02:50.609Z,100.0
2019-05-22T02:04:49.995Z,100.0
2019-05-22T02:06:50.163Z,100.0
2019-05-22T02:08:50.398Z,100.0
2019-05-22T02:10:50.421Z,100.0
2019-05-22T02:12:50.580Z,100.0
2019-05-22T02:14:50.780Z,100.0
2019-05-22T02:16:57.800Z,100.0
2019-05-22T02:18:49.782Z,100.0
2019-05-22T02:20:50.708Z,100.0
2019-05-22T02:22:50.677Z,100.0
2019-05-22T02:24:50.782Z,100.0
2019-05-22T02:26:49.821Z,100.0
2019-05-22T02:28:49.855Z,100.0
2019-05-22T02:30:49.859Z,100.0
2019-05-22T02:32:49.882Z,100.0
2019-05-22T02:34:50.213Z,100.0
2019-05-22T02:36:50.296Z,100.0
2019-05-22T02:38:50.258Z,100.0
2019-05-22T02:40:50.220Z,100.0
2019-05-22T02:42:50.259Z,100.0
2019-05-22T02:44:50.326Z,100.0
2019-05-22T02:46:50.594Z,100.0
2019-05-22T02:48:50.508Z,100.0
2019-05-22T02:50:50.500Z,100.0
2019-05-22T02:52:50.450Z,100.0
2019-05-22T02:54:50.491Z,100.0
2019-05-22T02:56:50.670Z,100.0
2019-05-22T02:58:50.694Z,100.0
2019-05-22T03:00:50.601Z,100.0
2019-05-22T03:02:50.741Z,100.0
2019-05-22T03:04:50.266Z,100.0
2019-05-22T03:06:50.665Z,100.0
2019-05-22T03:08:50.628Z,100.0
2019-05-22T03:10:50.696Z,100.0
2019-05-22T03:12:50.751Z,100.0
2019-05-22T03:14:50.645Z,100.0
2019-05-22T03:16:49.840Z,100.0
2019-05-22T03:19:09.736Z,100.0
2019-05-22T03:20:50.528Z,100.0
2019-05-22T03:22:50.528Z,100.0
2019-05-22T03:24:50.508Z,100.0
2019-05-22T03:26:50.774Z,100.0
2019-05-22T03:28:49.812Z,100.0
2019-05-22T03:30:50.834Z,100.0
2019-05-22T03:32:49.908Z,100.0
2019-05-22T03:34:50.488Z,100.0
2019-05-22T03:36:50.627Z,100.0
2019-05-22T03:38:50.786Z,100.0
2019-05-22T03:40:49.878Z,100.0
2019-05-22T03:42:49.839Z,100.0
2019-05-22T03:44:50.771Z,100.0
2019-05-22T03:46:49.953Z,100.0
2019-05-22T03:48:49.887Z,100.0
2019-05-22T03:50:49.925Z,100.0
2019-05-22T03:52:49.921Z,100.0
2019-05-22T03:54:49.933Z,100.0
2019-05-22T03:56:50.231Z,100.0
2019-05-22T03:58:50.205Z,100.0
2019-05-22T04:00:50.207Z,100.0
2019-05-22T04:02:50.291Z,100.0
2019-05-22T04:04:50.708Z,100.0
2019-05-22T04:06:49.824Z,100.0
2019-05-22T04:08:50.744Z,100.0
2019-05-22T04:10:49.776Z,100.0
2019-05-22T04:12:49.844Z,100.0
2019-05-22T04:14:50.827Z,100.0
2019-05-22T04:16:49.899Z,100.0
2019-05-22T04:18:49.858Z,100.0
2019-05-22T04:20:49.930Z,100.0
2019-05-22T04:22:49.971Z,100.0
2019-05-22T04:24:49.996Z,100.0
2019-05-22T04:26:50.232Z,100.0
2019-05-22T04:28:50.261Z,100.0
2019-05-22T04:30:50.248Z,100.0
2019-05-22T04:32:50.333Z,100.0
2019-05-22T04:34:50.719Z,100.0
2019-05-22T04:36:49.873Z,100.0
2019-05-22T04:38:49.824Z,100.0
2019-05-22T04:40:49.841Z,100.0
2019-05-22T04:42:49.993Z,100.0
2019-05-22T04:44:49.963Z,100.0
2019-05-22T04:46:50.089Z,100.0
2019-05-22T04:48:50.102Z,100.0
2019-05-22T04:50:50.058Z,100.0
2019-05-22T04:52:50.097Z,100.0
2019-05-22T04:54:53.144Z,100.0
2019-05-22T04:56:50.251Z,100.0
2019-05-22T04:58:50.298Z,100.0
2019-05-22T05:00:50.470Z,100.0
2019-05-22T05:02:50.421Z,100.0
2019-05-22T05:04:50.743Z,100.0
2019-05-22T05:06:49.915Z,100.0
2019-05-22T05:08:49.997Z,100.0
2019-05-22T05:10:49.931Z,100.0
2019-05-22T05:12:49.829Z,100.0
2019-05-22T05:14:49.851Z,100.0
2019-05-22T05:16:49.987Z,100.0
2019-05-22T05:18:49.954Z,100.0
2019-05-22T05:20:49.941Z,100.0
2019-05-22T05:22:49.913Z,100.0
2019-05-22T05:24:49.907Z,100.0
2019-05-22T05:26:50.163Z,100.0
2019-05-22T05:28:50.141Z,100.0
2019-05-22T05:30:50.141Z,100.0
2019-05-22T05:32:50.084Z,100.0
2019-05-22T05:34:50.357Z,100.0
2019-05-22T05:36:50.095Z,100.0
2019-05-22T05:38:49.972Z,100.0
2019-05-22T05:40:50.049Z,100.0
2019-05-22T05:42:49.969Z,100.0
2019-05-22T05:44:49.971Z,100.0
2019-05-22T05:46:50.061Z,100.0
2019-05-22T05:48:50.138Z,100.0
2019-05-22T05:50:50.089Z,100.0
2019-05-22T05:52:50.064Z,100.0
2019-05-22T05:54:50.049Z,100.0
2019-05-22T05:56:50.292Z,100.0
2019-05-22T05:58:50.382Z,100.0
2019-05-22T06:00:50.514Z,100.0
2019-05-22T06:02:57.250Z,100.0
2019-05-22T06:04:50.565Z,100.0
2019-05-22T06:06:49.812Z,100.0
2019-05-22T06:08:49.847Z,100.0
2019-05-22T06:10:49.914Z,100.0
2019-05-22T06:12:50.767Z,100.0
2019-05-22T06:14:49.833Z,100.0
2019-05-22T06:16:50.034Z,100.0
2019-05-22T06:18:50.006Z,100.0
2019-05-22T06:21:05.062Z,100.0
2019-05-22T06:22:50.703Z,100.0
2019-05-22T06:24:49.835Z,100.0
2019-05-22T06:26:49.980Z,100.0
2019-05-22T06:28:50.540Z,100.0
2019-05-22T06:30:50.651Z,100.0
2019-05-22T06:32:49.803Z,100.0
2019-05-22T06:34:50.240Z,100.0
2019-05-22T06:36:50.505Z,100.0
2019-05-22T06:38:50.714Z,100.0
2019-05-22T06:40:49.883Z,100.0
2019-05-22T06:42:50.034Z,100.0
2019-05-22T06:44:50.049Z,100.0
2019-05-22T06:46:50.381Z,100.0
2019-05-22T06:48:50.469Z,100.0
2019-05-22T06:50:50.631Z,100.0
2019-05-22T06:52:49.778Z,100.0
2019-05-22T06:54:49.908Z,100.0
2019-05-22T06:56:50.307Z,100.0
2019-05-22T06:58:50.399Z,100.0
2019-05-22T07:00:50.484Z,100.0
2019-05-22T07:02:50.537Z,100.0
2019-05-22T07:04:50.385Z,100.0
2019-05-22T07:06:50.595Z,100.0
2019-05-22T07:08:50.816Z,100.0
2019-05-22T07:10:49.995Z,100.0
2019-05-22T07:12:51.557Z,100.0
2019-05-22T07:14:50.643Z,100.0
2019-05-22T07:16:49.826Z,100.0
2019-05-22T07:18:49.851Z,100.0
2019-05-22T07:20:50.047Z,100.0
2019-05-22T07:22:50.205Z,100.0
2019-05-22T07:24:50.419Z,100.0
2019-05-22T07:26:50.718Z,100.0
2019-05-22T07:28:49.872Z,100.0
2019-05-22T07:30:49.912Z,100.0
2019-05-22T07:32:50.075Z,100.0
2019-05-22T07:34:50.697Z,100.0
2019-05-22T07:36:49.953Z,100.0
2019-05-22T07:38:50.020Z,100.0
2019-05-22T07:40:52.183Z,100.0
2019-05-22T07:42:50.670Z,100.0
2019-05-22T07:44:49.882Z,100.0
2019-05-22T07:46:49.978Z,100.0
2019-05-22T07:48:50.054Z,100.0
2019-05-22T07:50:50.188Z,100.0
2019-05-22T07:52:50.309Z,100.0
2019-05-22T07:54:50.451Z,100.0
2019-05-22T07:56:50.620Z,100.0
2019-05-22T07:58:50.678Z,100.0
2019-05-22T08:00:49.867Z,100.0
2019-05-22T08:02:49.974Z,100.0
2019-05-22T08:04:50.599Z,100.0
2019-05-22T08:06:50.798Z,100.0
2019-05-22T08:08:49.997Z,100.0
2019-05-22T08:10:50.108Z,100.0
2019-05-22T08:12:50.169Z,100.0
2019-05-22T08:14:50.138Z,100.0
2019-05-22T08:16:50.289Z,100.0
2019-05-22T08:18:50.395Z,100.0
2019-05-22T08:20:50.499Z,100.0
2019-05-22T08:22:50.662Z,100.0
2019-05-22T08:24:50.767Z,100.0
2019-05-22T08:26:55.501Z,100.0
2019-05-22T08:28:50.549Z,100.0
2019-05-22T08:30:50.658Z,100.0
2019-05-22T08:32:49.834Z,100.0
2019-05-22T08:34:50.347Z,100.0
2019-05-22T08:36:50.494Z,100.0
2019-05-22T08:38:50.797Z,100.0
2019-05-22T08:40:49.908Z,100.0
2019-05-22T08:42:49.945Z,100.0
2019-05-22T08:44:50.022Z,100.0
2019-05-22T08:46:50.506Z,100.0
2019-05-22T08:48:50.729Z,100.0
2019-05-22T08:50:50.129Z,100.0
2019-05-22T08:52:50.182Z,100.0
2019-05-22T08:54:50.254Z,100.0
2019-05-22T08:56:50.336Z,100.0
2019-05-22T08:58:50.463Z,100.0
2019-05-22T09:00:50.596Z,100.0
2019-05-22T09:02:50.705Z,100.0
2019-05-22T09:04:50.244Z,100.0
2019-05-22T09:06:50.519Z,100.0
2019-05-22T09:08:50.564Z,100.0
2019-05-22T09:10:49.825Z,100.0
2019-05-22T09:12:49.871Z,100.0
2019-05-22T09:14:50.446Z,100.0
2019-05-22T09:16:50.701Z,100.0
2019-05-22T09:18:49.776Z,100.0
2019-05-22T09:20:50.492Z,100.0
2019-05-22T09:22:50.604Z,100.0
2019-05-22T09:24:50.753Z,100.0
2019-05-22T09:26:50.084Z,100.0
2019-05-22T09:28:50.165Z,100.0
2019-05-22T09:30:50.291Z,100.0
2019-05-22T09:32:50.514Z,100.0
2019-05-22T09:34:50.173Z,100.0
2019-05-22T09:36:50.482Z,100.0
2019-05-22T09:38:53.249Z,100.0
2019-05-22T09:40:50.310Z,100.0
2019-05-22T09:42:50.452Z,100.0
2019-05-22T09:44:50.564Z,100.0
2019-05-22T09:46:49.863Z,100.0
2019-05-22T09:48:49.825Z,100.0
2019-05-22T09:50:50.079Z,100.0
2019-05-22T09:52:58.783Z,100.0
2019-05-22T09:54:49.784Z,100.0
2019-05-22T09:56:49.913Z,99.8
2019-05-22T09:58:50.053Z,98.7
2019-05-22T10:00:50.098Z,100.0
2019-05-22T10:02:50.273Z,95.6
2019-05-22T10:04:50.628Z,96.2
2019-05-22T10:06:50.743Z,94.9
2019-05-22T10:08:50.740Z,95.0
2019-05-22T10:10:50.004Z,92.6
2019-05-22T10:12:50.067Z,91.8
2019-05-22T10:14:50.475Z,94.8
2019-05-22T10:16:50.783Z,94.2
2019-05-22T10:18:54.065Z,94.3
2019-05-22T10:20:50.151Z,93.6
2019-05-22T10:22:50.375Z,92.8
2019-05-22T10:24:52.456Z,92.9
2019-05-22T10:26:50.625Z,93.4
2019-05-22T10:28:50.681Z,93.2
2019-05-22T10:30:52.242Z,93.0
2019-05-22T10:32:50.706Z,91.7
2019-05-22T10:34:50.236Z,92.3
2019-05-22T10:36:50.448Z,90.8
2019-05-22T10:38:50.585Z,90.1
2019-05-22T10:40:51.029Z,89.1
2019-05-22T10:42:50.115Z,85.0
2019-05-22T10:44:50.230Z,83.7
2019-05-22T10:46:50.406Z,85.9
2019-05-22T10:48:50.490Z,85.2
2019-05-22T10:50:50.559Z,83.7
2019-05-22T10:52:55.493Z,87.7
2019-05-22T10:54:50.527Z,88.0
2019-05-22T10:56:50.808Z,88.0
2019-05-22T10:58:49.974Z,88.5
2019-05-22T11:00:49.992Z,87.5
2019-05-22T11:02:50.114Z,87.4
2019-05-22T11:04:50.561Z,87.4
2019-05-22T11:06:49.820Z,86.4
2019-05-22T11:08:49.980Z,87.5
2019-05-22T11:10:50.207Z,86.0
2019-05-22T11:12:50.326Z,86.3
2019-05-22T11:14:50.383Z,84.7
2019-05-22T11:16:50.579Z,84.5
2019-05-22T11:18:50.609Z,83.8
2019-05-22T11:20:50.647Z,82.4
2019-05-22T11:22:50.781Z,81.8
2019-05-22T11:24:49.942Z,82.2
2019-05-22T11:26:50.190Z,78.3
2019-05-22T11:28:50.320Z,76.0
2019-05-22T11:30:50.416Z,77.9
2019-05-22T11:32:50.664Z,75.5
2019-05-22T11:34:50.251Z,75.5
2019-05-22T11:36:50.409Z,73.2
2019-05-22T11:38:50.492Z,74.2
2019-05-22T11:40:50.525Z,76.6
2019-05-22T11:42:50.873Z,76.6
2019-05-22T11:44:49.874Z,76.6
2019-05-22T11:46:50.081Z,80.4
2019-05-22T11:48:50.164Z,83.0
2019-05-22T11:50:50.386Z,83.2
2019-05-22T11:52:50.461Z,84.4
2019-05-22T11:54:50.753Z,84.8
2019-05-22T11:56:49.980Z,87.1
2019-05-22T11:58:50.028Z,87.2
2019-05-22T12:00:50.219Z,89.8
2019-05-22T12:02:50.405Z,89.4
2019-05-22T12:04:50.740Z,89.9
2019-05-22T12:06:54.422Z,89.1
2019-05-22T12:08:50.538Z,87.2
2019-05-22T12:10:50.651Z,87.2
2019-05-22T12:12:52.168Z,86.3
2019-05-22T12:14:50.301Z,87.1
2019-05-22T12:16:53.737Z,88.8
2019-05-22T12:18:49.797Z,86.9
2019-05-22T12:20:50.082Z,86.7
2019-05-22T12:22:50.167Z,86.7
2019-05-22T12:24:50.289Z,87.8
2019-05-22T12:26:50.591Z,88.0
2019-05-22T12:28:50.780Z,88.1
2019-05-22T12:30:50.054Z,85.5
2019-05-22T12:32:50.241Z,86.1
2019-05-22T12:34:50.792Z,84.5
2019-05-22T12:36:52.071Z,85.1
2019-05-22T12:38:50.266Z,86.9
2019-05-22T12:40:50.388Z,84.8
2019-05-22T12:42:50.575Z,83.1
2019-05-22T12:44:50.753Z,82.1
2019-05-22T12:46:49.951Z,80.8
2019-05-22T12:48:50.029Z,80.1
2019-05-22T12:50:50.098Z,77.8
2019-05-22T12:52:50.261Z,77.7
2019-05-22T12:54:53.540Z,78.2
2019-05-22T12:56:50.732Z,78.0
2019-05-22T12:58:49.790Z,80.6
2019-05-22T13:00:49.875Z,78.6
2019-05-22T13:02:49.929Z,77.7
2019-05-22T13:04:50.497Z,76.6
2019-05-22T13:06:50.721Z,71.9
2019-05-22T13:08:49.797Z,68.8
2019-05-22T13:10:49.877Z,64
2019-05-22T13:12:50.016Z,64
2019-05-22T13:14:50.091Z,65
2019-05-22T13:16:50.331Z,64
2019-05-22T13:18:50.468Z,64
2019-05-22T13:20:50.671Z,62
2019-05-22T13:22:51.071Z,66.2
2019-05-22T13:24:50.247Z,66.2
2019-05-22T13:26:50.466Z,68.4
2019-05-22T13:28:50.615Z,69.3
2019-05-22T13:30:50.613Z,68.9
2019-05-22T13:32:50.668Z,70.1
2019-05-22T13:34:50.248Z,71.9
2019-05-22T13:36:50.599Z,72.0
2019-05-22T13:38:50.745Z,70.5
2019-05-22T13:40:49.983Z,70.5
2019-05-22T13:42:50.106Z,70.9
2019-05-22T13:44:50.261Z,68.3
2019-05-22T13:46:50.454Z,68.6
2019-05-22T13:48:50.529Z,68.5
2019-05-22T13:50:50.660Z,68.5
2019-05-22T13:52:49.848Z,64.9
2019-05-22T13:54:49.983Z,66.9
2019-05-22T13:56:50.239Z,68.4
2019-05-22T13:58:50.355Z,69.6
2019-05-22T14:00:50.441Z,70.2
2019-05-22T14:02:50.560Z,71.9
2019-05-22T14:04:49.890Z,72.5
2019-05-22T14:06:50.212Z,74.1
2019-05-22T14:08:50.366Z,74.6
2019-05-22T14:10:50.706Z,75.9
2019-05-22T14:12:49.840Z,76.0
2019-05-22T14:14:50.111Z,76.3
2019-05-22T14:16:50.350Z,76.7
2019-05-22T14:18:50.425Z,76.7
2019-05-22T14:20:50.537Z,75.6
2019-05-22T14:22:50.611Z,75.0
2019-05-22T14:24:50.734Z,73.8
2019-05-22T14:26:50.034Z,75.5
2019-05-22T14:28:50.131Z,75.1
2019-05-22T14:30:50.301Z,75.0
2019-05-22T14:32:50.451Z,75.3
2019-05-22T14:34:50.035Z,74.8
2019-05-22T14:36:50.329Z,74.5
2019-05-22T14:38:50.488Z,75.5
2019-05-22T14:40:50.584Z,75.5
2019-05-22T14:42:50.611Z,76.0
2019-05-22T14:44:49.908Z,75.8
2019-05-22T14:46:50.319Z,74.8
2019-05-22T14:48:50.416Z,74.9
2019-05-22T14:50:50.545Z,74.1
2019-05-22T14:52:50.569Z,74.8
2019-05-22T14:54:50.670Z,75.0
2019-05-22T14:56:50.782Z,75.1
2019-05-22T14:58:49.853Z,73.6
2019-05-22T15:00:50.025Z,72.8
2019-05-22T15:03:00.246Z,73.2
2019-05-22T15:04:50.696Z,73.6
2019-05-22T15:06:50.229Z,72.9
2019-05-22T15:08:50.334Z,72.7
2019-05-22T15:10:50.413Z,74.2
2019-05-22T15:12:50.643Z,72.5
2019-05-22T15:14:50.679Z,73.4
2019-05-22T15:16:49.924Z,73.2
2019-05-22T15:18:50.027Z,73.2
2019-05-22T15:20:50.127Z,73.5
2019-05-22T15:22:50.248Z,73.7
2019-05-22T15:24:50.391Z,74.1
2019-05-22T15:26:50.722Z,74.0
2019-05-22T15:28:50.822Z,73.3
2019-05-22T15:30:49.891Z,73.8
2019-05-22T15:32:49.959Z,74.5
2019-05-22T15:34:50.694Z,76.0
2019-05-22T15:36:49.829Z,74.7
2019-05-22T15:38:50.072Z,75.2
2019-05-22T15:40:50.394Z,75.3
2019-05-22T15:42:50.493Z,76.0
2019-05-22T15:44:50.527Z,76.6
2019-05-22T15:46:49.920Z,76.0
2019-05-22T15:48:49.948Z,76.4
2019-05-22T15:50:50.546Z,76.1
2019-05-22T15:52:52.292Z,76.2
2019-05-22T15:54:50.373Z,75.7
2019-05-22T15:56:50.502Z,76.3
2019-05-22T15:58:50.553Z,76.2
2019-05-22T16:00:50.641Z,77.2
2019-05-22T16:02:50.614Z,77.1
2019-05-22T16:04:49.983Z,76.6
2019-05-22T16:06:50.260Z,77.2
2019-05-22T16:08:50.316Z,76.3
2019-05-22T16:10:50.278Z,76.2
2019-05-22T16:12:50.311Z,78.5
2019-05-22T16:14:50.236Z,77.4
2019-05-22T16:16:50.332Z,75.7
2019-05-22T16:18:50.368Z,76.4
2019-05-22T16:20:50.366Z,75.2
2019-05-22T16:22:50.333Z,75.0
2019-05-22T16:24:50.357Z,75.8
2019-05-22T16:26:50.495Z,75.9
2019-05-22T16:28:50.570Z,76.4
2019-05-22T16:30:50.479Z,76.2
2019-05-22T16:32:50.450Z,76.7
2019-05-22T16:34:49.802Z,77.3
2019-05-22T16:36:49.861Z,76.3
2019-05-22T16:38:49.980Z,76.2
2019-05-22T16:40:49.954Z,76.5
2019-05-22T16:42:49.945Z,75.9
2019-05-22T16:44:49.999Z,76.7
2019-05-22T16:46:50.042Z,76.1
2019-05-22T16:48:50.012Z,76.9
2019-05-22T16:50:50.173Z,76.8
2019-05-22T16:52:50.278Z,77.4
2019-05-22T16:54:50.199Z,77.3
2019-05-22T16:56:50.317Z,77.9
2019-05-22T16:58:50.301Z,78.6
2019-05-22T17:00:50.321Z,78.2
2019-05-22T17:02:50.354Z,79.2
2019-05-22T17:04:50.631Z,78.9
2019-05-22T17:06:49.783Z,79.3
2019-05-22T17:08:50.767Z,81.1
2019-05-22T17:10:49.802Z,79.6
2019-05-22T17:12:50.740Z,80.3
2019-05-22T17:14:50.730Z,80.1
2019-05-22T17:16:49.881Z,80.0
2019-05-22T17:18:50.036Z,80.7
2019-05-22T17:20:49.953Z,81.8
2019-05-22T17:22:49.934Z,80.0
2019-05-22T17:24:50.041Z,80.0
2019-05-22T17:26:50.217Z,79.7
2019-05-22T17:28:50.731Z,79.3
2019-05-22T17:30:50.752Z,79.2
2019-05-22T17:32:50.706Z,78.8
2019-05-22T17:34:50.020Z,78.9
2019-05-22T17:36:50.259Z,78.3
2019-05-22T17:38:50.241Z,78.8
2019-05-22T17:40:50.228Z,78.7
2019-05-22T17:42:50.443Z,79.3
2019-05-22T17:44:50.359Z,79.2
2019-05-22T17:46:50.605Z,79.4
2019-05-22T17:48:50.707Z,80.0
2019-05-22T17:50:50.660Z,80.1
2019-05-22T17:52:51.488Z,80.2
2019-05-22T17:54:50.532Z,81.2
2019-05-22T17:56:50.630Z,80.4
2019-05-22T17:58:50.740Z,81.0
2019-05-22T18:00:50.657Z,80.8
2019-05-22T18:02:50.730Z,81.5
2019-05-22T18:04:50.149Z,81.0
2019-05-22T18:06:50.273Z,81.8
2019-05-22T18:08:50.398Z,82.0
2019-05-22T18:10:50.392Z,81.5
2019-05-22T18:12:50.374Z,81.7
2019-05-22T18:14:50.363Z,83.3
2019-05-22T18:16:50.435Z,82.5
2019-05-22T18:18:50.443Z,82.3
2019-05-22T18:20:50.445Z,81.4
2019-05-22T18:22:50.410Z,82.2
2019-05-22T18:24:50.387Z,81.5
2019-05-22T18:26:50.616Z,81.4
2019-05-22T18:28:50.514Z,81.3
2019-05-22T18:30:50.447Z,80.9
2019-05-22T18:32:50.422Z,80.9
2019-05-22T18:34:50.791Z,81.2
2019-05-22T18:36:49.968Z,81.7
2019-05-22T18:38:49.867Z,81.8
2019-05-22T18:40:49.872Z,82.1
2019-05-22T18:42:49.828Z,83.0
2019-05-22T18:44:50.819Z,83.3
2019-05-22T18:46:50.098Z,83.1
2019-05-22T18:48:50.091Z,83.7
2019-05-22T18:50:50.095Z,84.4
2019-05-22T18:52:50.154Z,86.0
2019-05-22T18:54:50.132Z,86.5
2019-05-22T18:56:50.200Z,85.6
2019-05-22T18:58:50.122Z,87.4
2019-05-22T19:00:50.179Z,87.1
2019-05-22T19:02:50.343Z,88.2
2019-05-22T19:04:50.703Z,87.6
2019-05-22T19:06:50.814Z,87.6
2019-05-22T19:08:51.047Z,87.3
2019-05-22T19:10:50.015Z,87.8
2019-05-22T19:12:50.031Z,88.7
2019-05-22T19:14:49.986Z,90.8
2019-05-22T19:16:50.130Z,90.6
2019-05-22T19:18:50.231Z,89.9
2019-05-22T19:20:50.336Z,91.3
2019-05-22T19:23:02.191Z,91.6
2019-05-22T19:24:50.406Z,92.5
2019-05-22T19:26:50.675Z,92.7
2019-05-22T19:28:50.601Z,94.5
2019-05-22T19:30:50.519Z,96.1
2019-05-22T19:32:50.601Z,95.7
2019-05-22T19:34:50.113Z,96.2
2019-05-22T19:36:50.256Z,96.6
2019-05-22T19:38:50.280Z,97.8
2019-05-22T19:40:50.225Z,97.5
2019-05-22T19:42:50.256Z,98.7
2019-05-22T19:44:50.174Z,99.2
2019-05-22T19:46:50.282Z,99.8
2019-05-22T19:48:50.305Z,100.0
2019-05-22T19:50:50.223Z,100.0
2019-05-22T19:52:50.306Z,100.0
2019-05-22T19:54:50.364Z,100.0
2019-05-22T19:56:50.436Z,100.0
2019-05-22T19:58:50.355Z,100.0
2019-05-22T20:00:50.316Z,100.0
2019-05-22T20:02:51.549Z,100.0
2019-05-22T20:04:49.870Z,100.0
2019-05-22T20:06:49.920Z,100.0
2019-05-22T20:08:49.932Z,100.0
2019-05-22T20:10:49.966Z,100.0
2019-05-22T20:12:49.951Z,100.0
2019-05-22T20:14:49.947Z,100.0
2019-05-22T20:16:50.102Z,100.0
2019-05-22T20:18:50.092Z,100.0
2019-05-22T20:20:50.019Z,100.0
2019-05-22T20:22:50.046Z,100.0
2019-05-22T20:24:49.957Z,100.0
2019-05-22T20:26:50.115Z,100.0
2019-05-22T20:28:50.195Z,100.0
2019-05-22T20:30:50.293Z,100.0
2019-05-22T20:32:50.249Z,100.0
2019-05-22T20:34:50.604Z,100.0
2019-05-22T20:36:50.692Z,100.0
2019-05-22T20:38:50.680Z,100.0
2019-05-22T20:40:50.600Z,100.0
2019-05-22T20:42:50.661Z,100.0
2019-05-22T20:44:50.570Z,100.0
2019-05-22T20:46:50.729Z,100.0
2019-05-22T20:48:50.639Z,100.0
2019-05-22T20:50:50.657Z,100.0
2019-05-22T20:52:50.667Z,100.0
2019-05-22T20:54:50.655Z,100.0
2019-05-22T20:56:50.631Z,100.0
2019-05-22T20:58:50.640Z,100.0
2019-05-22T21:00:50.476Z,100.0
2019-05-22T21:02:50.477Z,100.0
2019-05-22T21:04:50.666Z,100.0
2019-05-22T21:06:50.750Z,100.0
2019-05-22T21:08:50.725Z,100.0
2019-05-22T21:10:50.636Z,100.0
2019-05-22T21:12:50.705Z,100.0
2019-05-22T21:14:50.754Z,100.0
2019-05-22T21:16:49.901Z,100.0
2019-05-22T21:18:49.952Z,100.0
2019-05-22T21:20:55.975Z,100.0
2019-05-22T21:22:50.219Z,100.0
2019-05-22T21:24:50.187Z,100.0
2019-05-22T21:26:50.376Z,100.0
2019-05-22T21:28:50.352Z,100.0
2019-05-22T21:30:50.241Z,100.0
2019-05-22T21:32:50.284Z,100.0
2019-05-22T21:34:50.485Z,100.0
2019-05-22T21:36:50.665Z,100.0
2019-05-22T21:38:50.703Z,100.0
2019-05-22T21:40:50.723Z,100.0
2019-05-22T21:42:50.758Z,100.0
2019-05-22T21:44:50.741Z,100.0
2019-05-22T21:46:49.855Z,100.0
2019-05-22T21:48:49.809Z,100.0
2019-05-22T21:50:50.766Z,100.0
2019-05-22T21:52:49.885Z,100.0
2019-05-22T21:54:49.879Z,100.0
2019-05-22T21:56:49.898Z,100.0
2019-05-22T21:58:49.910Z,100.0
2019-05-22T22:00:49.893Z,100.0
2019-05-22T22:02:49.889Z,100.0
2019-05-22T22:04:50.210Z,100.0
2019-05-22T22:06:50.330Z,100.0
2019-05-22T22:08:50.278Z,100.0
2019-05-22T22:10:50.219Z,100.0
2019-05-22T22:12:50.286Z,100.0
2019-05-22T22:14:50.228Z,100.0
2019-05-22T22:16:50.436Z,100.0
2019-05-22T22:18:50.378Z,100.0
2019-05-22T22:20:50.303Z,100.0
2019-05-22T22:22:50.316Z,100.0
2019-05-22T22:24:50.286Z,100.0
2019-05-22T22:26:50.336Z,100.0
2019-05-22T22:28:50.317Z,100.0
2019-05-22T22:30:50.341Z,100.0
2019-05-22T22:32:50.298Z,100.0
2019-05-22T22:34:50.513Z,100.0
2019-05-22T22:36:50.663Z,100.0
2019-05-22T22:38:50.783Z,100.0
2019-05-22T22:40:50.659Z,100.0
2019-05-22T22:42:50.663Z,100.0
2019-05-22T22:44:50.734Z,100.0
2019-05-22T22:46:49.981Z,100.0
2019-05-22T22:48:49.843Z,100.0
2019-05-22T22:50:50.742Z,100.0
2019-05-22T22:52:49.839Z,100.0
2019-05-22T22:54:49.864Z,100.0
2019-05-22T22:56:50.188Z,100.0
2019-05-22T22:58:50.247Z,100.0
2019-05-22T23:00:50.244Z,100.0
2019-05-22T23:02:50.218Z,100.0
2019-05-22T23:04:50.553Z,100.0
2019-05-22T23:06:50.597Z,100.0
2019-05-22T23:08:50.634Z,100.0
2019-05-22T23:10:50.792Z,100.0
2019-05-22T23:12:50.710Z,100.0
2019-05-22T23:14:50.624Z,100.0
2019-05-22T23:16:49.918Z,100.0
2019-05-22T23:18:49.922Z,100.0
2019-05-22T23:20:50.180Z,100.0
2019-05-22T23:22:50.127Z,100.0
2019-05-22T23:24:50.119Z,100.0
2019-05-22T23:26:50.270Z,100.0
2019-05-22T23:28:50.282Z,100.0
2019-05-22T23:30:50.277Z,100.0
2019-05-22T23:32:50.315Z,100.0
2019-05-22T23:34:50.618Z,100.0
2019-05-22T23:36:49.762Z,100.0
2019-05-22T23:38:49.826Z,100.0
2019-05-22T23:40:50.787Z,100.0
2019-05-22T23:42:50.702Z,100.0
2019-05-22T23:44:50.619Z,100.0
2019-05-22T23:46:50.764Z,100.0
2019-05-22T23:56:49.908Z,100.0
2019-05-22T23:58:53.857Z,100.0
